Time;durP1;ratioP1;P1;durP2;ratioP2;P2;SDS_P1;SDS_P2;PMS_P1;PMS_P2;Temp;Humidity;BMP_temperature;BMP_pressure;BME280_temperature;BME280_humidity;BME280_pressure;Samples;Min_cycle;Max_cycle;Signal;HPM_P1;HPM_P2
2021/05/18 00:00:00;;;;;;;2.45;0.63;;;17.90;34.70;;;;;;5029747;28;20103;-68
2021/05/18 00:02:26;;;;;;;1.77;0.50;;;17.90;34.30;;;;;;5037125;28;20056;-68
2021/05/18 00:04:51;;;;;;;1.38;0.50;;;17.80;34.50;;;;;;5037818;28;20029;-68
2021/05/18 00:07:21;;;;;;;0.98;0.60;;;17.80;34.50;;;;;;5034307;28;20132;-68
2021/05/18 00:12:33;;;;;;;1.00;0.57;;;17.70;35.00;;;;;;5031333;28;20045;-68
2021/05/18 00:15:03;;;;;;;1.40;0.88;;;17.60;35.30;;;;;;5028367;28;20049;-68
2021/05/18 00:17:29;;;;;;;2.72;0.68;;;17.60;36.40;;;;;;5036578;28;20120;-68
2021/05/18 00:19:55;;;;;;;2.90;0.70;;;17.60;35.50;;;;;;5031936;28;20473;-68
2021/05/18 00:22:20;;;;;;;0.40;0.40;;;17.50;35.80;;;;;;5036698;28;20087;-67
2021/05/18 00:24:46;;;;;;;1.00;0.43;;;17.50;36.10;;;;;;5028688;28;20404;-68
2021/05/18 00:27:12;;;;;;;1.52;0.63;;;17.50;35.90;;;;;;5034533;28;20068;-68
2021/05/18 00:29:38;;;;;;;0.88;0.60;;;17.50;36.00;;;;;;5031962;28;20072;-68
2021/05/18 00:32:04;;;;;;;2.90;0.60;;;17.50;36.00;;;;;;5037387;28;20076;-68
2021/05/18 00:34:30;;;;;;;1.50;0.57;;;17.40;35.90;;;;;;5031751;28;20045;-68
2021/05/18 00:36:56;;;;;;;0.82;0.60;;;17.40;35.80;;;;;;5039126;28;20036;-68
2021/05/18 00:39:21;;;;;;;1.58;0.80;;;17.30;33.90;;;;;;5032764;28;20037;-68
2021/05/18 00:41:47;;;;;;;1.85;0.52;;;17.50;34.30;;;;;;5042944;28;20513;-69
2021/05/18 00:44:14;;;;;;;0.47;0.35;;;17.40;34.10;;;;;;5031405;28;20048;-68
2021/05/18 00:46:40;;;;;;;1.05;0.45;;;17.50;33.80;;;;;;5030286;28;20491;-69
2021/05/18 00:49:06;;;;;;;0.75;0.47;;;17.40;33.00;;;;;;5036966;28;20535;-68
2021/05/18 00:51:31;;;;;;;0.98;0.47;;;17.40;33.00;;;;;;5044537;28;20037;-68
2021/05/18 00:54:00;;;;;;;0.35;0.30;;;17.40;32.80;;;;;;5035551;28;20087;-69
2021/05/18 00:58:55;;;;;;;1.40;0.32;;;17.30;32.20;;;;;;5032009;28;20084;-68
2021/05/18 01:01:21;;;;;;;1.75;0.40;;;17.30;32.60;;;;;;5028192;28;20064;-68
2021/05/18 01:03:48;;;;;;;0.93;0.40;;;17.30;33.10;;;;;;5032373;28;20051;-68
2021/05/18 01:08:53;;;;;;;0.45;0.30;;;17.10;31.80;;;;;;5032818;28;20164;-69
2021/05/18 01:11:23;;;;;;;1.30;0.47;;;17.20;32.50;;;;;;5029024;28;20091;-68
2021/05/18 01:13:49;;;;;;;0.77;0.25;;;17.20;32.60;;;;;;5034619;28;20099;-68
2021/05/18 01:16:15;;;;;;;2.13;0.40;;;17.20;32.80;;;;;;5031018;28;20040;-68
2021/05/18 01:18:44;;;;;;;0.70;0.60;;;17.20;32.70;;;;;;5033004;28;20029;-68
2021/05/18 01:21:12;;;;;;;1.17;0.40;;;17.20;33.10;;;;;;5034506;28;20040;-67
2021/05/18 01:23:38;;;;;;;0.63;0.50;;;17.10;32.50;;;;;;5035277;28;20728;-69
2021/05/18 01:26:05;;;;;;;1.27;0.50;;;17.10;32.50;;;;;;5032587;28;20041;-68
2021/05/18 01:28:31;;;;;;;1.48;0.40;;;17.10;33.20;;;;;;5031605;28;20148;-69
2021/05/18 01:30:59;;;;;;;0.95;0.50;;;17.00;33.20;;;;;;5034444;28;20038;-68
2021/05/18 01:33:25;;;;;;;0.40;0.40;;;17.00;33.50;;;;;;5033229;28;20124;-69
2021/05/18 01:35:53;;;;;;;1.02;0.60;;;16.90;33.50;;;;;;5033752;28;20044;-68
2021/05/18 01:38:22;;;;;;;0.70;0.40;;;16.90;33.90;;;;;;5026660;28;20120;-68
2021/05/18 01:43:33;;;;;;;0.90;0.50;;;16.90;33.60;;;;;;5030280;28;20160;-68
2021/05/18 01:45:59;;;;;;;0.80;0.50;;;16.80;34.10;;;;;;5035236;28;20113;-68
2021/05/18 01:48:25;;;;;;;1.17;0.60;;;16.80;34.60;;;;;;5031651;28;20366;-67
2021/05/18 01:50:51;;;;;;;0.65;0.50;;;16.70;34.60;;;;;;5034754;28;20045;-68
2021/05/18 01:53:19;;;;;;;2.75;0.75;;;16.70;34.30;;;;;;5030085;28;20040;-67
2021/05/18 01:58:20;;;;;;;1.23;0.75;;;16.70;34.30;;;;;;5034703;28;20033;-68
2021/05/18 02:00:46;;;;;;;1.15;0.60;;;16.70;34.20;;;;;;5037799;28;20033;-68
2021/05/18 02:03:12;;;;;;;2.10;0.93;;;16.70;34.50;;;;;;5038021;28;20057;-67
2021/05/18 02:05:40;;;;;;;0.60;0.40;;;16.60;35.00;;;;;;5038201;28;20037;-68
2021/05/18 02:08:09;;;;;;;0.85;0.60;;;16.60;33.90;;;;;;5030896;28;20041;-68
2021/05/18 02:10:35;;;;;;;1.17;0.88;;;16.60;34.00;;;;;;5052012;28;20479;-68
2021/05/18 02:13:00;;;;;;;2.22;0.43;;;16.70;34.20;;;;;;5041128;28;20068;-67
2021/05/18 02:15:52;;;;;;;1.35;0.50;;;16.60;34.00;;;;;;5030319;28;20067;-68
2021/05/18 02:21:02;;;;;;;3.22;0.60;;;16.60;33.60;;;;;;5035344;28;20872;-68
2021/05/18 02:26:13;;;;;;;0.60;0.30;;;16.60;33.90;;;;;;5025451;28;20040;-68
2021/05/18 02:28:39;;;;;;;2.47;0.60;;;16.60;33.50;;;;;;5032299;28;20091;-68
2021/05/18 02:31:04;;;;;;;1.45;0.65;;;16.50;33.80;;;;;;5027629;28;20045;-68
2021/05/18 02:33:30;;;;;;;1.17;0.80;;;16.50;34.30;;;;;;5035031;28;20041;-68
2021/05/18 02:35:55;;;;;;;1.38;0.70;;;16.40;34.90;;;;;;5036200;28;20029;-68
2021/05/18 02:38:21;;;;;;;0.98;0.80;;;16.40;34.00;;;;;;5033698;28;20033;-68
2021/05/18 02:40:47;;;;;;;1.58;0.77;;;16.30;35.20;;;;;;5034156;28;20037;-68
2021/05/18 02:43:18;;;;;;;3.30;0.50;;;16.30;35.00;;;;;;5036935;28;20045;-68
2021/05/18 02:46:04;;;;;;;0.80;0.55;;;16.30;35.20;;;;;;5029229;28;20052;-68
2021/05/18 02:51:15;;;;;;;1.25;0.52;;;16.20;35.50;;;;;;5040656;28;20044;-67
2021/05/18 02:53:40;;;;;;;3.15;0.70;;;16.20;36.40;;;;;;5036403;28;20048;-62
2021/05/18 02:58:34;;;;;;;0.60;0.50;;;16.30;35.60;;;;;;5040947;28;20146;-68
2021/05/18 03:01:00;;;;;;;1.35;0.80;;;16.20;35.80;;;;;;5033455;28;20041;-68
2021/05/18 03:03:26;;;;;;;1.35;0.85;;;16.20;36.00;;;;;;5036041;28;20517;-68
2021/05/18 03:05:51;;;;;;;1.08;0.70;;;16.20;36.40;;;;;;5028986;28;20034;-68
2021/05/18 03:08:19;;;;;;;1.67;0.90;;;16.20;37.40;;;;;;5038488;28;20037;-68
2021/05/18 03:10:45;;;;;;;1.45;0.75;;;16.10;37.90;;;;;;5035943;28;20483;-68
2021/05/18 03:13:11;;;;;;;2.25;0.60;;;16.10;37.90;;;;;;5033310;28;20049;-68
2021/05/18 03:15:37;;;;;;;1.83;0.65;;;16.20;37.80;;;;;;5040325;28;20571;-68
2021/05/18 03:18:03;;;;;;;1.23;0.60;;;16.10;37.70;;;;;;5036332;28;20040;-69
2021/05/18 03:20:29;;;;;;;0.82;0.50;;;16.10;37.70;;;;;;5051794;28;20052;-69
2021/05/18 03:22:55;;;;;;;2.60;0.77;;;16.00;38.20;;;;;;5036495;28;20053;-69
2021/05/18 03:25:21;;;;;;;1.90;0.88;;;15.90;38.40;;;;;;5039238;28;20060;-69
2021/05/18 03:27:48;;;;;;;2.60;0.68;;;16.00;37.80;;;;;;5038215;28;20155;-68
2021/05/18 03:30:34;;;;;;;1.67;0.50;;;16.40;38.50;;;;;;5040650;28;20036;-68
2021/05/18 03:35:45;;;;;;;0.68;0.40;;;15.90;38.20;;;;;;5041929;28;20139;-68
2021/05/18 03:40:52;;;;;;;;;;;15.90;38.20;;;;;;5031940;28;20072;-69
2021/05/18 03:43:41;;;;;;;0.70;0.55;;;15.80;40.50;;;;;;5035590;28;19927;-69
2021/05/18 04:19:02;;;;;;;1.27;0.70;;;15.80;40.40;;;;;;5030423;28;20163;-68
2021/05/18 04:51:40;;;;;;;5.47;0.98;;;15.80;40.20;;;;;;5025214;28;20132;-69
2021/05/18 04:54:29;;;;;;;1.52;0.50;;;15.80;40.10;;;;;;5038268;28;20041;-69
2021/05/18 04:59:50;;;;;;;1.23;0.57;;;15.80;39.10;;;;;;5037495;28;20103;-68
2021/05/18 05:08:07;;;;;;;2.55;0.95;;;15.90;38.00;;;;;;5041016;28;20102;-68
2021/05/18 05:15:39;;;;;;;4.55;1.00;;;16.00;39.80;;;;;;5050133;28;20047;-68
2021/05/18 05:18:05;;;;;;;2.15;1.00;;;16.00;38.50;;;;;;5031723;28;20052;-68
2021/05/18 05:20:30;;;;;;;2.72;0.88;;;15.90;39.10;;;;;;5034076;28;20040;-69
2021/05/18 05:22:57;;;;;;;4.57;1.85;;;16.00;40.50;;;;;;5029810;28;20064;-68
2021/05/18 05:25:23;;;;;;;1.98;1.10;;;16.00;39.30;;;;;;5034853;28;20105;-68
2021/05/18 05:27:50;;;;;;;5.72;1.25;;;16.10;40.00;;;;;;5031018;28;20033;-68
2021/05/18 05:30:16;;;;;;;4.10;0.93;;;16.00;38.80;;;;;;5036574;28;20040;-68
2021/05/18 05:32:42;;;;;;;2.50;1.27;;;16.00;39.60;;;;;;5041762;28;20120;-69
2021/05/18 05:36:03;;;;;;;2.55;0.95;;;16.10;39.90;;;;;;5038672;28;20128;-68
2021/05/18 05:38:30;;;;;;;3.67;0.88;;;16.10;41.50;;;;;;4974120;28;20135;-68
2021/05/18 05:40:56;;;;;;;4.80;1.83;;;16.20;41.30;;;;;;5041839;28;20112;-68
2021/05/18 05:43:22;;;;;;;2.55;1.55;;;16.10;40.60;;;;;;5033588;28;20119;-68
2021/05/18 05:45:52;;;;;;;5.05;1.40;;;16.20;40.90;;;;;;5041411;28;20033;-68
2021/05/18 05:48:18;;;;;;;2.65;1.20;;;16.20;41.80;;;;;;5048450;28;20047;-68
2021/05/18 05:50:45;;;;;;;4.90;1.40;;;16.20;40.90;;;;;;5059857;28;20041;-68
2021/05/18 05:53:11;;;;;;;4.78;1.58;;;16.20;40.70;;;;;;5030379;28;20045;-69
2021/05/18 05:55:36;;;;;;;5.38;2.30;;;16.30;40.60;;;;;;5039113;28;20078;-68
2021/05/18 05:58:02;;;;;;;6.07;1.50;;;16.40;40.00;;;;;;5027149;28;20410;-68
2021/05/18 06:00:28;;;;;;;3.80;1.73;;;16.40;40.60;;;;;;5011642;28;20040;-68
2021/05/18 06:02:54;;;;;;;3.20;1.55;;;16.40;39.60;;;;;;5032944;28;20064;-68
2021/05/18 06:05:19;;;;;;;4.80;2.10;;;16.50;40.00;;;;;;5035385;28;20494;-66
2021/05/18 06:07:45;;;;;;;3.53;2.08;;;16.50;40.50;;;;;;5030320;28;20041;-67
2021/05/18 06:10:35;;;;;;;6.03;2.45;;;16.50;40.90;;;;;;5040596;28;20501;-67
2021/05/18 06:37:19;;;;;;;5.65;1.35;;;16.80;40.60;;;;;;5041161;28;20033;-69
2021/05/18 06:42:42;;;;;;;3.15;1.98;;;16.90;40.60;;;;;;5040935;28;20048;-67
2021/05/18 06:47:53;;;;;;;;;;;17.00;40.40;;;;;;5009882;28;20121;-67
2021/05/18 06:52:46;;;;;;;6.22;1.80;;;16.90;39.40;;;;;;5036923;28;20033;-68
2021/05/18 06:55:19;;;;;;;2.08;1.23;;;17.00;40.60;;;;;;5040138;28;20033;-69
2021/05/18 06:57:48;;;;;;;2.42;1.60;;;17.00;40.30;;;;;;5039603;28;20036;-69
2021/05/18 07:00:18;;;;;;;2.70;1.58;;;17.00;39.60;;;;;;5036986;28;20036;-67
2021/05/18 07:02:45;;;;;;;5.60;1.60;;;17.10;39.30;;;;;;5036102;28;20053;-68
2021/05/18 07:07:50;;;;;;;6.05;2.70;;;17.20;39.90;;;;;;5037910;28;20097;-69
2021/05/18 07:10:16;;;;;;;4.05;2.30;;;17.20;40.10;;;;;;5031237;28;20424;-68
2021/05/18 07:12:42;;;;;;;4.90;1.77;;;17.30;40.40;;;;;;5041054;28;20048;-69
2021/05/18 07:15:08;;;;;;;5.43;2.25;;;17.30;40.20;;;;;;5039921;28;20048;-69
2021/05/18 07:17:34;;;;;;;5.22;1.67;;;17.40;40.40;;;;;;5029351;28;20467;-70
2021/05/18 07:20:00;;;;;;;4.78;1.60;;;17.40;39.70;;;;;;5025047;28;20161;-69
2021/05/18 07:22:25;;;;;;;5.70;1.73;;;17.50;39.90;;;;;;5019568;28;20045;-68
2021/05/18 07:24:51;;;;;;;4.05;2.05;;;17.50;39.80;;;;;;5027844;28;20065;-68
2021/05/18 07:27:17;;;;;;;4.78;2.30;;;17.50;40.30;;;;;;5022391;28;20044;-68
2021/05/18 07:29:43;;;;;;;2.83;2.22;;;17.60;40.60;;;;;;5040211;28;20044;-69
2021/05/18 07:32:08;;;;;;;5.05;2.45;;;17.60;40.50;;;;;;5036687;28;20041;-68
2021/05/18 07:34:34;;;;;;;2.85;2.30;;;17.60;39.90;;;;;;5043369;28;20535;-68
2021/05/18 07:37:00;;;;;;;3.92;2.50;;;17.70;40.00;;;;;;5030743;28;20029;-68
2021/05/18 07:39:25;;;;;;;5.60;2.65;;;17.80;39.90;;;;;;5043281;28;20098;-68
2021/05/18 07:41:51;;;;;;;6.03;2.75;;;17.80;40.00;;;;;;5022548;28;20051;-68
2021/05/18 07:44:17;;;;;;;7.10;2.70;;;17.90;40.00;;;;;;5028101;28;20049;-69
2021/05/18 07:46:43;;;;;;;7.95;2.60;;;17.90;40.20;;;;;;5034031;28;20087;-69
2021/05/18 07:49:45;;;;;;;3.65;2.85;;;17.90;39.70;;;;;;5045131;28;20091;-69
2021/05/18 08:05:31;;;;;;;4.30;2.30;;;18.20;38.90;;;;;;5017307;28;20119;-68
2021/05/18 08:07:57;;;;;;;6.45;3.03;;;18.20;39.00;;;;;;5032991;28;20061;-69
2021/05/18 08:12:49;;;;;;;6.88;3.15;;;18.30;39.00;;;;;;5031868;28;20132;-68
2021/05/18 10:37:23;;;;;;;0.35;0.35;;;21.60;24.10;;;;;;5018554;28;20487;-69
2021/05/18 10:40:23;;;;;;;2.15;0.40;;;21.50;25.80;;;;;;5009846;28;20051;-67
2021/05/18 10:43:10;;;;;;;0.55;0.30;;;21.70;24.60;;;;;;5016704;28;20107;-67
2021/05/18 10:49:09;;;;;;;1.35;0.25;;;22.00;22.70;;;;;;4986583;28;20177;-68
2021/05/18 10:51:44;;;;;;;1.50;0.28;;;22.10;23.80;;;;;;5043323;28;20049;-68
2021/05/18 10:54:29;;;;;;;3.65;0.95;;;22.40;24.40;;;;;;5036485;28;20555;-68
2021/05/18 10:57:01;;;;;;;0.88;0.10;;;22.40;23.30;;;;;;5018128;28;20482;-68
2021/05/18 10:59:45;;;;;;;0.52;0.30;;;22.50;22.70;;;;;;5037046;28;20038;-69
2021/05/18 11:02:16;;;;;;;0.60;0.52;;;22.70;22.50;;;;;;5037610;28;20087;-69
2021/05/18 11:04:43;;;;;;;2.13;0.57;;;23.50;22.70;;;;;;5034667;28;20136;-68
2021/05/18 11:07:10;;;;;;;0.63;0.45;;;26.00;26.70;;;;;;5044326;28;20037;-68
2021/05/18 11:09:38;;;;;;;1.73;0.80;;;26.20;18.80;;;;;;5051960;28;20116;-68
2021/05/18 11:12:12;;;;;;;2.65;0.60;;;26.50;19.20;;;;;;5044058;28;20383;-69
2021/05/18 11:14:44;;;;;;;;;;;26.10;19.00;;;;;;5040507;28;20794;-69
2021/05/18 11:17:46;;;;;;;1.35;0.70;;;26.00;19.00;;;;;;5033270;28;20293;-68
2021/05/18 11:23:24;;;;;;;1.38;0.70;;;26.20;20.20;;;;;;5020869;28;20175;-69
2021/05/18 11:26:06;;;;;;;0.98;0.43;;;26.50;19.20;;;;;;5004429;28;20572;-69
2021/05/18 11:28:40;;;;;;;1.48;0.73;;;26.70;18.90;;;;;;5046245;28;20033;-69
2021/05/18 11:31:10;;;;;;;;;;;26.80;17.90;;;;;;5039684;28;20037;-70
2021/05/18 11:33:47;;;;;;;0.88;0.50;;;26.80;17.70;;;;;;5039547;28;19964;-69
2021/05/18 11:36:29;;;;;;;1.23;0.30;;;27.10;18.10;;;;;;5039249;28;20045;-70
2021/05/18 11:39:01;;;;;;;1.10;0.20;;;28.00;17.40;;;;;;5018701;28;20048;-69
2021/05/18 11:41:29;;;;;;;3.17;1.45;;;28.90;18.60;;;;;;5028386;28;20498;-69
2021/05/18 11:44:01;;;;;;;1.45;0.88;;;29.00;17.40;;;;;;5032246;28;20052;-69
2021/05/18 11:46:29;;;;;;;0.60;0.60;;;28.80;17.90;;;;;;5034547;28;20079;-70
2021/05/18 11:49:00;;;;;;;3.17;2.88;;;28.10;17.70;;;;;;5042628;28;20441;-69
2021/05/18 11:51:29;;;;;;;3.67;0.65;;;27.80;18.40;;;;;;5038122;28;20029;-69
2021/05/18 11:54:01;;;;;;;4.00;0.57;;;27.80;18.00;;;;;;5037816;28;20160;-69
2021/05/18 11:56:30;;;;;;;5.65;1.98;;;27.80;16.90;;;;;;5041472;28;22217;-69
2021/05/18 11:59:06;;;;;;;2.47;0.70;;;27.80;17.50;;;;;;5042562;28;20040;-69
2021/05/18 12:01:37;;;;;;;0.95;0.90;;;27.90;16.50;;;;;;5034567;28;20040;-69
2021/05/18 12:04:23;;;;;;;2.50;1.45;;;27.80;16.80;;;;;;5042963;28;20053;-69
2021/05/18 12:07:04;;;;;;;1.05;0.60;;;27.70;15.40;;;;;;5037325;28;20538;-69
2021/05/18 12:09:32;;;;;;;0.55;0.40;;;27.80;16.00;;;;;;5059397;28;20056;-68
2021/05/18 12:12:00;;;;;;;2.53;1.00;;;27.80;16.80;;;;;;5040619;28;20024;-69
2021/05/18 12:14:28;;;;;;;1.88;0.47;;;27.90;16.60;;;;;;5039944;28;20043;-68
2021/05/18 12:16:54;;;;;;;1.42;0.35;;;28.30;17.10;;;;;;5037209;28;20087;-68
2021/05/18 12:19:21;;;;;;;1.65;0.40;;;28.30;16.60;;;;;;5036219;28;20044;-68
2021/05/18 12:21:49;;;;;;;0.73;0.73;;;28.50;16.90;;;;;;5039031;28;20037;-68
2021/05/18 12:24:27;;;;;;;0.55;0.40;;;28.40;16.40;;;;;;5043274;28;20131;-68
2021/05/18 12:27:03;;;;;;;1.55;0.60;;;28.30;15.90;;;;;;5039182;28;20044;-69
2021/05/18 12:29:35;;;;;;;0.50;0.50;;;28.20;17.20;;;;;;5052255;28;20147;-68
2021/05/18 12:32:12;;;;;;;1.42;0.60;;;28.40;17.00;;;;;;5052784;28;20136;-69
2021/05/18 12:34:38;;;;;;;1.00;0.40;;;28.20;17.20;;;;;;5035973;28;20048;-69
2021/05/18 12:37:04;;;;;;;1.17;0.38;;;28.50;17.80;;;;;;5037307;28;20041;-68
2021/05/18 12:39:33;;;;;;;3.97;0.40;;;28.60;17.20;;;;;;5035428;28;20040;-68
2021/05/18 12:42:03;;;;;;;2.90;0.90;;;28.60;16.40;;;;;;5031429;28;20410;-68
2021/05/18 12:44:31;;;;;;;0.88;0.32;;;28.80;16.70;;;;;;5030803;28;20044;-68
2021/05/18 12:47:02;;;;;;;0.73;0.50;;;28.20;15.80;;;;;;5034768;28;20049;-68
2021/05/18 12:49:36;;;;;;;1.05;0.50;;;28.70;15.90;;;;;;5030218;28;20033;-68
2021/05/18 12:52:06;;;;;;;2.20;0.57;;;28.50;15.60;;;;;;5039811;28;20106;-68
2021/05/18 12:54:39;;;;;;;0.40;0.40;;;28.70;15.40;;;;;;5047152;28;20503;-68
2021/05/18 12:57:05;;;;;;;2.10;0.40;;;28.40;16.00;;;;;;5032084;28;20167;-68
2021/05/18 12:59:31;;;;;;;1.08;0.30;;;28.60;16.10;;;;;;5046471;28;20041;-68
2021/05/18 13:01:57;;;;;;;0.68;0.50;;;28.50;16.00;;;;;;5036634;28;20036;-68
2021/05/18 13:04:22;;;;;;;1.27;0.55;;;28.90;16.00;;;;;;5033439;28;20128;-67
2021/05/18 13:06:49;;;;;;;1.00;0.47;;;29.40;15.60;;;;;;5033967;28;20037;-67
2021/05/18 13:09:25;;;;;;;3.75;0.60;;;30.20;15.60;;;;;;5037441;28;20453;-67
2021/05/18 13:12:15;;;;;;;0.65;0.40;;;30.30;14.90;;;;;;5034239;28;20030;-67
2021/05/18 13:15:02;;;;;;;3.17;0.60;;;28.90;15.10;;;;;;5042326;28;20116;-67
2021/05/18 13:17:29;;;;;;;2.05;0.60;;;28.10;15.10;;;;;;5012588;28;20121;-67
2021/05/18 13:19:59;;;;;;;0.63;0.50;;;27.80;16.10;;;;;;5039124;28;20091;-68
2021/05/18 13:22:27;;;;;;;4.57;0.95;;;27.30;15.80;;;;;;5031725;28;20075;-67
2021/05/18 13:28:04;;;;;;;1.88;0.80;;;27.20;16.80;;;;;;5019275;28;20502;-67
2021/05/18 13:30:31;;;;;;;1.50;0.50;;;27.00;15.30;;;;;;5011357;28;20050;-67
2021/05/18 13:32:57;;;;;;;0.85;0.77;;;27.30;16.50;;;;;;5036818;28;20038;-67
2021/05/18 13:35:25;;;;;;;1.00;0.57;;;28.00;16.30;;;;;;5038330;28;20491;-67
2021/05/18 13:37:51;;;;;;;1.48;0.43;;;29.40;15.60;;;;;;5046616;28;20124;-67
2021/05/18 13:40:20;;;;;;;0.80;0.43;;;30.50;15.30;;;;;;5034805;28;20164;-67
2021/05/18 13:42:51;;;;;;;1.25;0.60;;;30.90;20.70;;;;;;5033274;28;20049;-67
2021/05/18 13:45:17;;;;;;;0.70;0.65;;;30.90;14.60;;;;;;5038723;28;20411;-67
2021/05/18 13:47:43;;;;;;;3.05;0.80;;;30.10;15.20;;;;;;5033793;28;20041;-68
2021/05/18 13:50:09;;;;;;;3.90;1.35;;;29.80;15.70;;;;;;5039027;28;20038;-68
2021/05/18 13:52:35;;;;;;;5.63;1.60;;;31.50;15.00;;;;;;5033056;28;20088;-68
2021/05/18 13:55:01;;;;;;;3.15;0.60;;;33.70;14.50;;;;;;5046493;28;20067;-68
2021/05/18 13:57:27;;;;;;;1.20;1.10;;;;;;;;;;5039815;28;20052;-68
2021/05/18 13:59:54;;;;;;;3.92;0.93;;;;;;;;;;5056287;28;20041;-67
2021/05/18 14:02:20;;;;;;;0.70;0.70;;;34.80;14.20;;;;;;5033965;28;20048;-68
2021/05/18 14:04:46;;;;;;;2.55;1.20;;;33.50;19.10;;;;;;5056611;28;20045;-68
2021/05/18 14:10:17;;;;;;;3.03;1.13;;;33.80;13.50;;;;;;4992176;28;20064;-67
2021/05/18 14:12:42;;;;;;;3.50;1.30;;;33.40;14.70;;;;;;5049454;28;20041;-68
2021/05/18 14:15:09;;;;;;;2.28;1.52;;;33.60;14.40;;;;;;5040063;28;20095;-68
2021/05/18 14:17:35;;;;;;;5.40;1.30;;;33.40;14.30;;;;;;5039041;28;20120;-68
2021/05/18 14:20:00;;;;;;;5.43;1.50;;;32.80;14.40;;;;;;5043419;28;20120;-68
2021/05/18 14:22:26;;;;;;;3.28;1.25;;;32.10;14.40;;;;;;5037342;28;20371;-68
2021/05/18 14:25:04;;;;;;;5.60;1.45;;;31.80;14.80;;;;;;5042766;28;20079;-68
2021/05/18 14:27:34;;;;;;;1.52;1.10;;;31.20;15.00;;;;;;5035771;28;20065;-67
2021/05/18 14:30:00;;;;;;;1.15;1.05;;;30.60;24.40;;;;;;5043233;28;20060;-67
2021/05/18 14:32:26;;;;;;;1.10;0.88;;;30.20;15.30;;;;;;5038375;28;20029;-68
2021/05/18 14:34:52;;;;;;;1.63;0.82;;;29.70;15.00;;;;;;5034517;28;20117;-67
2021/05/18 14:37:19;;;;;;;3.30;1.45;;;29.20;15.10;;;;;;5042717;28;20491;-67
2021/05/18 14:40:05;;;;;;;2.22;0.88;;;28.70;15.40;;;;;;5034851;28;20037;-67
2021/05/18 14:45:14;;;;;;;1.38;0.77;;;28.20;16.00;;;;;;5031863;28;20502;-67
2021/05/18 14:47:56;;;;;;;3.15;0.80;;;28.00;16.10;;;;;;5044565;28;20399;-67
2021/05/18 14:55:50;;;;;;;4.07;0.70;;;27.10;16.50;;;;;;5036959;28;19924;-67
2021/05/18 14:58:16;;;;;;;2.13;0.77;;;26.80;16.70;;;;;;5039999;28;20033;-66
2021/05/18 15:00:42;;;;;;;1.55;0.70;;;26.60;17.00;;;;;;5037223;28;20037;-67
2021/05/18 15:03:09;;;;;;;1.00;0.52;;;26.50;17.20;;;;;;5036605;28;20122;-67
2021/05/18 15:05:35;;;;;;;1.08;0.82;;;26.30;17.20;;;;;;5037720;28;20037;-68
2021/05/18 15:08:00;;;;;;;2.05;0.75;;;26.20;17.60;;;;;;5055852;28;20040;-67
2021/05/18 15:10:28;;;;;;;1.02;0.93;;;26.10;17.40;;;;;;5039144;28;20045;-67
2021/05/18 15:12:56;;;;;;;3.63;0.63;;;26.00;17.50;;;;;;5036593;28;20050;-67
2021/05/18 15:15:53;;;;;;;1.17;0.85;;;25.90;18.00;;;;;;5032983;28;20033;-67
2021/05/18 15:18:18;;;;;;;3.20;0.93;;;25.80;18.00;;;;;;5036251;28;20061;-67
2021/05/18 15:20:44;;;;;;;1.73;0.85;;;25.60;18.40;;;;;;5040350;28;20069;-67
2021/05/18 15:23:10;;;;;;;1.35;0.57;;;25.50;18.60;;;;;;5041786;28;20036;-68
2021/05/18 15:25:35;;;;;;;2.08;0.70;;;25.50;18.80;;;;;;5032978;28;20049;-67
2021/05/18 15:28:02;;;;;;;1.80;1.13;;;25.40;19.10;;;;;;5038187;28;20075;-67
2021/05/18 15:30:28;;;;;;;1.17;0.70;;;25.40;19.50;;;;;;5049904;28;20432;-67
2021/05/18 15:32:53;;;;;;;1.83;0.93;;;25.30;19.50;;;;;;5040054;28;20478;-67
2021/05/18 15:35:19;;;;;;;2.42;0.80;;;25.20;19.90;;;;;;5036589;28;20394;-67
2021/05/18 15:37:45;;;;;;;1.52;0.60;;;25.20;19.80;;;;;;5039382;28;20045;-67
2021/05/18 15:40:13;;;;;;;2.22;0.80;;;25.20;20.00;;;;;;5038690;28;20037;-67
2021/05/18 15:42:39;;;;;;;1.38;0.73;;;25.10;20.10;;;;;;5048283;28;20512;-67
2021/05/18 15:45:06;;;;;;;3.00;0.90;;;24.90;20.10;;;;;;5040714;28;20128;-67
2021/05/18 15:47:36;;;;;;;1.90;0.88;;;24.80;20.10;;;;;;5036882;28;20040;-67
2021/05/18 15:50:02;;;;;;;4.15;1.10;;;24.80;20.30;;;;;;5044886;28;20040;-66
2021/05/18 15:52:28;;;;;;;6.68;1.98;;;24.80;21.00;;;;;;5034341;28;20037;-67
2021/05/18 15:54:53;;;;;;;5.82;2.10;;;24.60;22.90;;;;;;5039554;28;20037;-66
2021/05/18 15:57:19;;;;;;;7.85;1.92;;;24.40;24.30;;;;;;5037314;28;20029;-66
2021/05/18 15:59:49;;;;;;;21.20;3.08;;;24.30;27.80;;;;;;5037885;28;20049;-68
2021/05/18 16:02:15;;;;;;;9.95;2.28;;;23.80;41.90;;;;;;5036463;28;20040;-71
2021/05/18 16:04:41;;;;;;;8.13;2.85;;;22.00;57.80;;;;;;5036975;28;20053;-70
2021/05/18 16:07:08;;;;;;;9.50;1.83;;;21.30;57.50;;;;;;5035983;28;20040;-70
2021/05/18 16:09:34;;;;;;;10.57;2.38;;;21.20;51.40;;;;;;5038973;28;20505;-69
2021/05/18 16:11:59;;;;;;;4.00;1.35;;;21.20;49.50;;;;;;5034850;28;20041;-69
2021/05/18 16:14:25;;;;;;;6.88;2.03;;;21.40;49.00;;;;;;5058612;28;20432;-69
2021/05/18 16:16:51;;;;;;;4.35;1.50;;;21.70;46.80;;;;;;5038949;28;20497;-68
2021/05/18 16:19:17;;;;;;;2.25;1.35;;;21.80;45.20;;;;;;5054174;28;20088;-67
2021/05/18 16:21:43;;;;;;;5.47;1.77;;;21.90;43.90;;;;;;5020957;28;20068;-68
2021/05/18 16:24:09;;;;;;;8.82;1.63;;;22.00;43.60;;;;;;5035191;28;20041;-68
2021/05/18 16:26:35;;;;;;;7.53;1.52;;;22.00;42.10;;;;;;5032463;28;20060;-68
2021/05/18 16:29:09;;;;;;;5.72;1.45;;;22.00;42.40;;;;;;5035993;28;20380;-68
2021/05/18 16:31:35;;;;;;;5.97;2.30;;;22.10;43.10;;;;;;5050729;28;20520;-68
2021/05/18 16:34:01;;;;;;;2.72;1.50;;;22.10;41.70;;;;;;5045676;28;20049;-68
2021/05/18 16:36:27;;;;;;;5.38;1.52;;;22.10;40.40;;;;;;5040794;28;20045;-67
2021/05/18 16:38:55;;;;;;;7.50;2.30;;;22.20;41.30;;;;;;5039372;28;20025;-68
2021/05/18 16:41:21;;;;;;;20.30;17.73;;;22.10;40.20;;;;;;5041695;28;20052;-69
2021/05/18 16:43:47;;;;;;;11.88;8.18;;;22.10;39.00;;;;;;5038302;28;20124;-69
2021/05/18 16:46:13;;;;;;;10.90;3.85;;;22.20;39.80;;;;;;5043763;28;20119;-68
2021/05/18 16:48:39;;;;;;;4.80;2.00;;;22.20;39.20;;;;;;5052014;28;20081;-67
2021/05/18 16:51:07;;;;;;;7.90;2.08;;;22.20;39.10;;;;;;5026442;28;20037;-68
2021/05/18 16:53:33;;;;;;;11.00;2.10;;;22.20;38.80;;;;;;5021626;28;20112;-67
2021/05/18 16:56:05;;;;;;;9.45;2.53;;;22.10;38.20;;;;;;5034081;28;20033;-68
2021/05/18 16:58:34;;;;;;;7.35;2.70;;;22.10;38.70;;;;;;5038444;28;20037;-68
2021/05/18 17:00:59;;;;;;;8.95;2.83;;;22.10;38.20;;;;;;5041117;28;20388;-68
2021/05/18 17:03:25;;;;;;;10.57;3.40;;;22.00;38.20;;;;;;5019227;28;20060;-66
2021/05/18 17:05:51;;;;;;;12.68;3.13;;;21.90;38.10;;;;;;5029445;28;20036;-67
2021/05/18 17:08:17;;;;;;;10.48;3.03;;;21.90;37.80;;;;;;5029593;28;20125;-65
2021/05/18 17:11:01;;;;;;;9.48;2.28;;;21.90;38.30;;;;;;5033751;28;20490;-68
2021/05/18 17:13:26;;;;;;;11.05;2.78;;;21.80;37.30;;;;;;5013016;28;20041;-67
2021/05/18 17:15:52;;;;;;;10.98;3.30;;;21.80;38.10;;;;;;5034254;28;20029;-66
2021/05/18 17:18:17;;;;;;;10.90;3.20;;;21.80;38.00;;;;;;5042407;28;20041;-65
2021/05/18 17:20:44;;;;;;;9.45;2.15;;;21.70;37.70;;;;;;5039108;28;20032;-68
2021/05/18 17:23:12;;;;;;;8.02;2.47;;;21.70;37.60;;;;;;5039781;28;20049;-67
2021/05/18 17:25:38;;;;;;;8.30;2.63;;;21.70;37.10;;;;;;5040499;28;20040;-67
2021/05/18 17:28:04;;;;;;;9.02;2.17;;;21.60;36.30;;;;;;5044268;28;20025;-68
2021/05/18 17:30:29;;;;;;;7.47;2.30;;;21.70;36.90;;;;;;5034254;28;20436;-67
2021/05/18 17:32:56;;;;;;;8.30;2.50;;;21.60;36.20;;;;;;5044096;28;20090;-67
2021/05/18 17:35:23;;;;;;;8.73;2.22;;;21.50;36.40;;;;;;5039681;28;20045;-68
2021/05/18 17:37:50;;;;;;;8.77;2.22;;;21.50;36.50;;;;;;5047037;28;20037;-67
2021/05/18 17:40:16;;;;;;;6.65;2.53;;;21.40;36.10;;;;;;5044275;28;20037;-67
2021/05/18 17:42:42;;;;;;;5.75;2.60;;;21.30;36.20;;;;;;5041435;28;20037;-68
2021/05/18 17:45:11;;;;;;;9.32;2.35;;;21.30;36.10;;;;;;5036957;28;20113;-67
2021/05/18 17:47:38;;;;;;;9.05;2.15;;;21.30;36.40;;;;;;5035811;28;20060;-68
2021/05/18 17:50:04;;;;;;;7.82;2.35;;;21.20;36.40;;;;;;5038898;28;20044;-69
2021/05/18 17:55:51;;;;;;;7.50;1.98;;;21.20;37.50;;;;;;4947799;28;20040;-68
2021/05/18 17:58:18;;;;;;;9.25;2.20;;;21.00;36.60;;;;;;5059197;28;20432;-67
2021/05/18 18:00:44;;;;;;;8.98;2.08;;;21.00;37.70;;;;;;5039249;28;20037;-68
2021/05/18 18:03:09;;;;;;;8.27;2.33;;;21.00;37.00;;;;;;5022219;28;20123;-68
2021/05/18 18:06:27;;;;;;;12.65;2.05;;;20.90;37.00;;;;;;5033656;28;20099;-68
2021/05/18 18:08:57;;;;;;;7.32;1.98;;;21.00;37.60;;;;;;4985870;28;20051;-67
2021/05/18 18:11:23;;;;;;;8.43;1.90;;;20.90;37.60;;;;;;5037677;28;20033;-68
2021/05/18 18:13:48;;;;;;;6.63;2.28;;;20.90;37.60;;;;;;5041380;28;20506;-67
2021/05/18 18:16:15;;;;;;;6.32;1.85;;;20.80;37.60;;;;;;5046197;28;20114;-68
2021/05/18 18:18:41;;;;;;;4.18;1.77;;;20.70;37.90;;;;;;5038474;28;20099;-67